createdAt,value
2022-08-09T00:02:57.469Z,77.24
2022-08-09T00:08:01.326Z,77.03
2022-08-09T00:13:03.966Z,76.96
2022-08-09T00:18:11.531Z,76.59
2022-08-09T00:23:58.135Z,76.61
2022-08-09T00:28:37.220Z,76.67
2022-08-09T00:33:49.065Z,76.68
2022-08-09T00:38:53.927Z,76.63
2022-08-09T00:44:14.161Z,76.49
2022-08-09T00:49:18.507Z,76.46
2022-08-09T00:54:31.376Z,76.29
2022-08-09T00:59:46.621Z,76.77
2022-08-09T01:05:13.878Z,76.56
2022-08-09T01:10:29.442Z,76.87
2022-08-09T01:15:40.966Z,76.63
2022-08-09T01:21:15.841Z,77.12
2022-08-09T01:26:54.074Z,77.01
2022-08-09T01:32:43.906Z,76.88
2022-08-09T01:37:42.932Z,76.56
2022-08-09T01:42:46.509Z,76.50
2022-08-09T01:47:49.788Z,76.42
2022-08-09T01:52:54.261Z,76.25
2022-08-09T01:57:57.362Z,76.30
2022-08-09T02:02:59.967Z,76.30
2022-08-09T02:08:38.899Z,76.22
2022-08-09T02:13:37.295Z,76.45
2022-08-09T02:18:47.848Z,76.47
2022-08-09T02:23:54.786Z,76.75
2022-08-09T02:29:03.887Z,76.65
2022-08-09T02:34:13.590Z,76.39
2022-08-09T02:39:33.991Z,76.78
2022-08-09T02:44:45.386Z,76.16
2022-08-09T02:49:57.083Z,76.13
2022-08-09T02:55:20.431Z,76.07
2022-08-09T03:00:25.850Z,75.61
2022-08-09T03:05:29.435Z,75.68
2022-08-09T03:10:33.750Z,75.17
2022-08-09T03:15:40.617Z,75.47
2022-08-09T03:20:59.358Z,75.60
2022-08-09T03:26:03.642Z,75.60
2022-08-09T03:31:10.502Z,75.33
2022-08-09T03:36:27.636Z,75.09
2022-08-09T03:41:45.730Z,75.10
2022-08-09T03:46:50.987Z,74.45
2022-08-09T03:52:00.428Z,74.10
2022-08-09T03:57:12.402Z,74.18
2022-08-09T04:02:28.019Z,74.14
2022-08-09T04:07:47.426Z,74.04
2022-08-09T04:12:54.596Z,73.57
2022-08-09T04:17:57.824Z,73.32
2022-08-09T04:23:09.943Z,73.53
2022-08-09T04:28:12.565Z,73.75
2022-08-09T04:33:14.781Z,73.67
2022-08-09T04:38:17.085Z,73.65
2022-08-09T04:43:20.673Z,73.05
2022-08-09T04:48:33.429Z,72.80
2022-08-09T04:53:35.923Z,72.85
2022-08-09T04:58:38.397Z,72.83
2022-08-09T05:03:43.444Z,72.89
2022-08-09T05:08:48.078Z,72.42
2022-08-09T05:13:50.643Z,72.40
2022-08-09T05:18:59.632Z,72.71
2022-08-09T05:24:05.090Z,72.33
2022-08-09T05:29:07.575Z,72.65
2022-08-09T05:34:21.065Z,72.78
2022-08-09T05:39:36.454Z,72.57
2022-08-09T05:44:45.329Z,72.45
2022-08-09T05:50:25.593Z,72.11
2022-08-09T05:55:20.512Z,71.93
2022-08-09T06:00:24.791Z,71.79
2022-08-09T06:05:30.654Z,71.53
2022-08-09T06:10:56.932Z,70.91
2022-08-09T06:15:59.951Z,71.52
2022-08-09T06:21:04.492Z,71.04
2022-08-09T06:26:08.005Z,71.18
2022-08-09T06:31:11.894Z,70.75
2022-08-09T06:36:14.117Z,70.58
2022-08-09T06:41:18.905Z,70.03
2022-08-09T06:46:39.221Z,70.55
2022-08-09T06:51:43.102Z,69.80
2022-08-09T06:56:48.235Z,69.60
2022-08-09T07:01:53.710Z,69.01
2022-08-09T07:07:00.474Z,68.56
2022-08-09T07:12:03.384Z,67.70
2022-08-09T07:17:08.629Z,67.11
2022-08-09T07:22:11.652Z,66.75
2022-08-09T07:27:26.264Z,67.46
2022-08-09T07:32:35.377Z,66.93
2022-08-09T07:37:45.664Z,67.64
2022-08-09T07:42:57.156Z,67.30
2022-08-09T07:48:01.706Z,66.85
2022-08-09T07:53:07.743Z,67.22
2022-08-09T07:58:14.400Z,66.45
2022-08-09T08:03:17.329Z,66.07
2022-08-09T08:09:00.269Z,66.80
2022-08-09T08:13:56.323Z,65.74
2022-08-09T08:19:02.642Z,66.17
2022-08-09T08:24:12.092Z,65.19
2022-08-09T08:29:20.186Z,65.59
2022-08-09T08:34:29.834Z,65.49
2022-08-09T08:39:43.767Z,64.99
2022-08-09T08:44:47.278Z,64.76
2022-08-09T08:49:49.612Z,64.20
2022-08-09T08:54:56.682Z,64.51
2022-08-09T08:59:59.211Z,63.90
2022-08-09T09:05:06.205Z,63.86
2022-08-09T09:10:12.684Z,62.71
2022-08-09T09:15:27.945Z,62.63
2022-08-09T09:20:36.536Z,62.16
2022-08-09T09:26:03.126Z,61.18
2022-08-09T09:31:17.660Z,61.83
2022-08-09T09:36:51.307Z,60.47
2022-08-09T09:41:57.243Z,59.35
2022-08-09T09:47:16.684Z,60.06
2022-08-09T09:52:36.814Z,59.42
2022-08-09T09:58:03.177Z,58.91
2022-08-09T10:03:11.420Z,58.17
2022-08-09T10:08:27.892Z,56.99
2022-08-09T10:13:43.229Z,55.73
2022-08-09T10:18:56.115Z,55.11
2022-08-09T10:24:04.797Z,57.45
2022-08-09T10:29:32.724Z,56.57
2022-08-09T10:34:33.663Z,55.57
2022-08-09T10:39:49.236Z,55.19
2022-08-09T10:45:16.902Z,54.80
2022-08-09T10:50:27.062Z,53.93
2022-08-09T10:55:58.602Z,54.66
2022-08-09T11:03:06.967Z,52.78
2022-08-09T11:06:26.366Z,53.60
2022-08-09T11:11:54.441Z,53.84
2022-08-09T11:16:59.841Z,55.18
2022-08-09T11:22:10.226Z,54.33
2022-08-09T11:28:02.735Z,54.82
2022-08-09T11:33:07.033Z,54.53
2022-08-09T11:38:28.549Z,53.81
2022-08-09T11:43:35.007Z,53.39
2022-08-09T11:48:51.496Z,54.86
2022-08-09T11:54:14.443Z,54.49
2022-08-09T11:59:30.529Z,54.46
2022-08-09T12:04:37.373Z,52.89
2022-08-09T12:09:43.982Z,53.71
2022-08-09T12:15:08.065Z,53.74
2022-08-09T12:20:21.331Z,54.19
2022-08-09T12:25:36.088Z,53.61
2022-08-09T12:30:40.714Z,53.92
2022-08-09T12:35:43.941Z,54.65
2022-08-09T12:40:51.749Z,55.04
2022-08-09T12:45:59.700Z,55.44
2022-08-09T12:51:04.353Z,55.14
2022-08-09T12:56:42.973Z,55.30
2022-08-09T13:01:49.109Z,55.36
2022-08-09T13:06:54.150Z,55.13
2022-08-09T13:12:02.515Z,55.15
2022-08-09T13:17:08.437Z,55.34
2022-08-09T13:22:36.782Z,55.53
2022-08-09T13:27:55.060Z,55.50
2022-08-09T13:32:58.620Z,55.53
2022-08-09T13:38:02.351Z,55.79
2022-08-09T13:43:09.490Z,55.29
2022-08-09T13:48:14.593Z,54.96
2022-08-09T13:53:18.028Z,54.41
2022-08-09T13:58:20.847Z,53.76
2022-08-09T14:04:02.525Z,54.34
2022-08-09T14:08:46.420Z,54.62
2022-08-09T14:14:22.255Z,53.30
2022-08-09T14:19:12.137Z,53.82
2022-08-09T14:24:18.706Z,54.08
2022-08-09T14:29:25.377Z,54.40
2022-08-09T14:34:47.028Z,54.56
2022-08-09T14:39:59.092Z,55.17
2022-08-09T14:46:51.421Z,55.34
2022-08-09T14:50:25.993Z,56.35
2022-08-09T14:55:32.660Z,56.35
2022-08-09T15:00:39.814Z,56.13
2022-08-09T15:05:52.493Z,56.95
2022-08-09T15:11:01.162Z,56.81
2022-08-09T15:16:04.750Z,56.69
2022-08-09T15:21:55.588Z,56.16
2022-08-09T15:26:32.607Z,56.73
2022-08-09T15:31:41.817Z,56.83
2022-08-09T15:36:48.370Z,57.27
2022-08-09T15:41:50.902Z,57.39
2022-08-09T15:46:53.135Z,57.44
2022-08-09T15:52:03.477Z,57.76
2022-08-09T15:57:09.487Z,57.44
2022-08-09T16:02:13.190Z,57.90
2022-08-09T16:07:16.074Z,57.76
2022-08-09T16:12:19.453Z,57.65
2022-08-09T16:17:22.283Z,58.25
2022-08-09T16:22:25.073Z,58.08
2022-08-09T16:27:32.075Z,58.48
2022-08-09T16:32:56.753Z,58.29
2022-08-09T16:38:00.528Z,58.28
2022-08-09T16:43:04.609Z,58.21
2022-08-09T16:48:39.648Z,58.42
2022-08-09T16:53:33.962Z,58.50
2022-08-09T16:58:49.841Z,58.66
2022-08-09T17:03:53.790Z,59.50
2022-08-09T17:09:00.271Z,60.22
2022-08-09T17:14:25.586Z,60.13
2022-08-09T17:19:47.409Z,60.54
2022-08-09T17:24:54.956Z,60.75
2022-08-09T17:29:57.931Z,61.27
2022-08-09T17:35:11.202Z,61.48
2022-08-09T17:40:16.918Z,62.24
2022-08-09T17:45:27.411Z,62.59
2022-08-09T17:50:40.849Z,62.83
2022-08-09T17:56:01.999Z,63.08
2022-08-09T18:01:08.817Z,63.32
2022-08-09T18:06:14.902Z,63.80
2022-08-09T18:11:46.876Z,64.57
2022-08-09T18:17:00.796Z,64.31
2022-08-09T18:22:03.468Z,64.70
2022-08-09T18:27:06.890Z,64.82
2022-08-09T18:32:10.872Z,65.26
2022-08-09T18:37:48.173Z,65.95
2022-08-09T18:42:43.802Z,65.74
2022-08-09T18:47:49.021Z,65.85
2022-08-09T18:52:53.418Z,66.24
2022-08-09T18:57:58.275Z,66.30
2022-08-09T19:03:00.730Z,66.07
2022-08-09T19:08:09.967Z,66.30
2022-08-09T19:13:22.351Z,66.51
2022-08-09T19:18:33.199Z,66.75
2022-08-09T19:24:36.588Z,66.84
2022-08-09T19:29:15.650Z,67.36
2022-08-09T19:34:22.828Z,67.48
2022-08-09T19:39:43.930Z,67.96
2022-08-09T19:44:51.392Z,67.96
2022-08-09T19:50:09.611Z,68.28
2022-08-09T19:55:30.680Z,68.40
2022-08-09T20:00:45.444Z,68.37
2022-08-09T20:05:50.836Z,68.57
2022-08-09T20:10:56.359Z,68.89
2022-08-09T20:16:35.606Z,68.86
2022-08-09T20:21:24.119Z,69.06
2022-08-09T20:26:43.210Z,68.91
2022-08-09T20:32:16.835Z,69.33
2022-08-09T20:37:07.686Z,69.27
2022-08-09T20:42:12.624Z,69.39
2022-08-09T20:47:36.328Z,69.44
2022-08-09T20:52:37.963Z,69.69
2022-08-09T20:58:05.250Z,69.65
2022-08-09T21:03:04.947Z,69.85
2022-08-09T21:08:07.375Z,70.30
2022-08-09T21:13:12.135Z,70.21
2022-08-09T21:18:25.643Z,70.21
2022-08-09T21:23:47.805Z,70.26
2022-08-09T21:28:56.255Z,70.54
2022-08-09T21:33:59.467Z,70.74
2022-08-09T21:39:01.902Z,70.54
2022-08-09T21:44:07.083Z,70.68
2022-08-09T21:49:11.107Z,70.86
2022-08-09T21:54:16.628Z,70.83
2022-08-09T21:59:19.323Z,70.99
2022-08-09T22:04:55.733Z,70.93
2022-08-09T22:09:48.059Z,71.36
2022-08-09T22:14:51.650Z,71.22
2022-08-09T22:19:59.163Z,70.86
2022-08-09T22:26:05.500Z,71.19
2022-08-09T22:30:26.373Z,71.35
2022-08-09T22:36:01.109Z,71.41
2022-08-09T22:40:58.460Z,71.63
2022-08-09T22:48:10.151Z,71.58
2022-08-09T22:51:24.079Z,71.29
2022-08-09T22:56:32.804Z,71.47
2022-08-09T23:01:36.223Z,72.06
2022-08-09T23:06:57.475Z,71.98
2022-08-09T23:12:00.173Z,71.68
2022-08-09T23:17:02.426Z,71.88
2022-08-09T23:22:04.721Z,71.95
2022-08-09T23:27:06.912Z,71.85
2022-08-09T23:32:09.167Z,71.81
2022-08-09T23:37:11.392Z,71.80
2022-08-09T23:42:13.671Z,72.17
2022-08-09T23:47:15.828Z,72.46
2022-08-09T23:52:17.990Z,72.56
2022-08-09T23:57:25.573Z,72.38
